Time;durP1;ratioP1;P1;durP2;ratioP2;P2;SDS_P1;SDS_P2;PMS_P1;PMS_P2;Temp;Humidity;BMP_temperature;BMP_pressure;BME280_temperature;BME280_humidity;BME280_pressure;Samples;Min_cycle;Max_cycle;Signal;HPM_P1;HPM_P2
2022/03/26 00:00:19;;;;;;;;;;;12.40;57.50;;;;;;5031249;28;19905;-70
2022/03/26 00:02:45;;;;;;;;;;;12.50;57.60;;;;;;5030628;28;19917;-69
2022/03/26 00:05:10;;;;;;;;;;;12.40;57.60;;;;;;5012994;28;19917;-70
2022/03/26 00:07:36;;;;;;;;;;;12.40;57.60;;;;;;5013045;28;19920;-70
2022/03/26 00:10:03;;;;;;;;;;;12.30;57.60;;;;;;5012469;28;19959;-70
2022/03/26 00:12:28;;;;;;;;;;;12.30;57.90;;;;;;5030776;28;19905;-70
2022/03/26 00:14:54;;;;;;;;;;;12.20;58.10;;;;;;5029953;28;19956;-70
2022/03/26 00:17:19;;;;;;;;;;;12.20;58.10;;;;;;5030750;28;19912;-69
2022/03/26 00:19:45;;;;;;;;;;;12.20;58.00;;;;;;5015617;28;19916;-70
2022/03/26 00:22:11;;;;;;;;;;;12.20;58.30;;;;;;5016343;28;19913;-69
2022/03/26 00:24:37;;;;;;;;;;;12.20;58.30;;;;;;5016555;28;19905;-69
2022/03/26 00:27:02;;;;;;;;;;;12.10;58.20;;;;;;5033549;28;19913;-70
2022/03/26 00:29:28;;;;;;;;;;;12.00;58.40;;;;;;5034570;28;19906;-71
2022/03/26 00:31:54;;;;;;;;;;;12.00;58.60;;;;;;5015578;28;20306;-70
2022/03/26 00:34:19;;;;;;;;;;;12.00;58.50;;;;;;5015723;28;19992;-69
2022/03/26 00:36:45;;;;;;;;;;;12.00;58.70;;;;;;5034188;28;19917;-69
2022/03/26 00:39:11;;;;;;;;;;;11.90;58.80;;;;;;5033429;28;19967;-69
2022/03/26 00:41:36;;;;;;;;;;;11.90;59.00;;;;;;5015928;28;19908;-70
2022/03/26 00:44:02;;;;;;;;;;;11.90;58.90;;;;;;5015403;28;19905;-69
2022/03/26 00:46:27;;;;;;;;;;;11.90;58.90;;;;;;5015992;28;19905;-71
2022/03/26 00:48:56;;;;;;;;;;;11.80;59.00;;;;;;5033002;28;19993;-69
2022/03/26 00:51:21;;;;;;;;;;;11.80;59.20;;;;;;5015944;28;19912;-69
2022/03/26 00:53:47;;;;;;;;;;;11.80;59.30;;;;;;5033405;28;19905;-69
2022/03/26 00:56:13;;;;;;;;;;;11.80;59.10;;;;;;5015237;28;19905;-69
2022/03/26 00:58:39;;;;;;;;;;;11.70;59.20;;;;;;5033943;28;19999;-69
2022/03/26 01:01:04;;;;;;;;;;;11.70;59.30;;;;;;5032734;28;19948;-69
2022/03/26 01:03:30;;;;;;;;;;;11.60;59.60;;;;;;5015155;28;19943;-69
2022/03/26 01:05:55;;;;;;;;;;;11.50;59.60;;;;;;5032758;28;19913;-70
2022/03/26 01:08:21;;;;;;;;;;;11.60;59.50;;;;;;5033241;28;19917;-69
2022/03/26 01:10:46;;;;;;;;;;;11.50;59.60;;;;;;5033023;28;19905;-70
2022/03/26 01:13:13;;;;;;;;;;;11.60;59.60;;;;;;5032692;28;19905;-69
2022/03/26 01:15:38;;;;;;;;;;;11.50;59.80;;;;;;5033224;28;19988;-69
2022/03/26 01:18:04;;;;;;;;;;;11.50;59.80;;;;;;5032707;28;19960;-69
2022/03/26 01:20:29;;;;;;;;;;;11.50;59.80;;;;;;5033372;28;20315;-69
2022/03/26 01:22:55;;;;;;;;;;;11.30;60.00;;;;;;5016194;28;19971;-69
2022/03/26 01:25:21;;;;;;;;;;;11.40;60.00;;;;;;5034736;28;19912;-69
2022/03/26 01:27:46;;;;;;;;;;;11.40;60.00;;;;;;5034898;28;20366;-69
2022/03/26 01:30:13;;;;;;;;;;;11.40;60.10;;;;;;5051875;28;20273;-68
2022/03/26 01:32:38;;;;;;;;;;;11.30;60.20;;;;;;5052631;28;19909;-69
2022/03/26 01:35:06;;;;;;;;;;;11.30;60.20;;;;;;5051492;28;20646;-69
2022/03/26 01:37:31;;;;;;;;;;;11.30;60.30;;;;;;5052833;28;19955;-69
2022/03/26 01:39:56;;;;;;;;;;;11.30;60.50;;;;;;5052440;28;19966;-69
2022/03/26 01:42:22;;;;;;;;;;;11.40;60.40;;;;;;5034745;28;20437;-69
2022/03/26 01:44:48;;;;;;;;;;;11.30;60.40;;;;;;5052379;28;19905;-69
2022/03/26 01:47:14;;;;;;;;;;;11.30;60.60;;;;;;5033972;28;20346;-69
2022/03/26 01:49:39;;;;;;;;;;;11.30;60.60;;;;;;5052570;28;19909;-70
2022/03/26 01:52:07;;;;;;;;;;;11.10;60.60;;;;;;5052268;28;19909;-70
2022/03/26 01:54:33;;;;;;;;;;;11.20;60.90;;;;;;5052486;28;19905;-69
2022/03/26 01:56:58;;;;;;;;;;;11.10;61.00;;;;;;5033969;28;19973;-71
2022/03/26 01:59:24;;;;;;;;;;;11.10;61.00;;;;;;5052508;28;19905;-69
2022/03/26 02:01:50;;;;;;;;;;;11.10;61.10;;;;;;5052319;28;19950;-69
2022/03/26 02:04:16;;;;;;;;;;;11.10;61.20;;;;;;5051796;28;20370;-69
2022/03/26 02:06:42;;;;;;;;;;;11.20;60.80;;;;;;5052200;28;19920;-69
2022/03/26 02:09:12;;;;;;;;;;;11.00;61.10;;;;;;5051509;28;19913;-69
2022/03/26 02:11:38;;;;;;;;;;;11.00;61.40;;;;;;5051995;28;19911;-69
2022/03/26 02:14:04;;;;;;;;;;;10.90;61.30;;;;;;5033674;28;19905;-68
2022/03/26 02:16:31;;;;;;;;;;;11.00;61.10;;;;;;5034261;28;19904;-69
2022/03/26 02:18:56;;;;;;;;;;;10.90;61.10;;;;;;5051547;28;19943;-69
2022/03/26 02:21:22;;;;;;;;;;;10.90;61.30;;;;;;5052139;28;19905;-69
2022/03/26 02:23:48;;;;;;;;;;;11.00;61.40;;;;;;5034008;28;19948;-69
2022/03/26 02:26:26;;;;;;;;;;;11.00;61.50;;;;;;5051703;28;19948;-69
2022/03/26 02:28:55;;;;;;;;;;;10.80;61.60;;;;;;5033995;28;20226;-70
2022/03/26 02:31:20;;;;;;;;;;;10.80;61.40;;;;;;5051993;28;19912;-69
2022/03/26 02:33:46;;;;;;;;;;;10.70;61.30;;;;;;5033790;28;19919;-69
2022/03/26 02:36:12;;;;;;;;;;;10.80;61.50;;;;;;5051351;28;19971;-69
2022/03/26 02:38:38;;;;;;;;;;;10.80;61.60;;;;;;5052077;28;19911;-69
2022/03/26 02:41:04;;;;;;;;;;;10.80;61.50;;;;;;5032860;28;19905;-69
2022/03/26 02:43:30;;;;;;;;;;;10.90;61.40;;;;;;5051880;28;19905;-69
2022/03/26 02:45:55;;;;;;;;;;;10.80;61.40;;;;;;5033094;28;19909;-70
2022/03/26 02:48:21;;;;;;;;;;;10.80;61.50;;;;;;5033706;28;19909;-70
2022/03/26 02:50:47;;;;;;;;;;;10.90;61.40;;;;;;5051449;28;19916;-68
2022/03/26 02:53:13;;;;;;;;;;;10.90;61.30;;;;;;5032855;28;19905;-69
2022/03/26 02:55:39;;;;;;;;;;;10.70;61.50;;;;;;5051551;28;20388;-70
2022/03/26 02:58:05;;;;;;;;;;;10.60;61.70;;;;;;5051097;28;20011;-69
2022/03/26 03:00:31;;;;;;;;;;;10.70;61.80;;;;;;5051515;28;19904;-69
2022/03/26 03:02:56;;;;;;;;;;;10.70;61.90;;;;;;5029321;28;19917;-70
2022/03/26 03:05:22;;;;;;;;;;;10.80;61.60;;;;;;5030264;28;19913;-69
2022/03/26 03:07:48;;;;;;;;;;;10.70;61.90;;;;;;5030147;28;19909;-69
2022/03/26 03:10:15;;;;;;;;;;;10.70;61.90;;;;;;5031052;28;19983;-69
2022/03/26 03:12:45;;;;;;;;;;;10.70;61.90;;;;;;5030174;28;19913;-69
2022/03/26 03:15:11;;;;;;;;;;;10.60;61.90;;;;;;5029531;28;20211;-70
2022/03/26 03:17:37;;;;;;;;;;;10.60;62.20;;;;;;5031168;28;20024;-70
2022/03/26 03:20:03;;;;;;;;;;;10.50;62.40;;;;;;5030860;28;19999;-68
2022/03/26 03:22:29;;;;;;;;;;;10.40;62.90;;;;;;5029954;28;19916;-69
2022/03/26 03:24:55;;;;;;;;;;;10.40;62.80;;;;;;5031505;28;19905;-71
2022/03/26 03:27:21;;;;;;;;;;;10.30;63.00;;;;;;5029383;28;19916;-70
2022/03/26 03:29:46;;;;;;;;;;;10.20;63.40;;;;;;5031516;28;19913;-69
2022/03/26 03:32:12;;;;;;;;;;;10.30;63.30;;;;;;5030794;28;20047;-69
2022/03/26 03:34:37;;;;;;;;;;;10.30;63.30;;;;;;5031420;28;19913;-69
2022/03/26 03:37:03;;;;;;;;;;;10.30;63.40;;;;;;5030919;28;19912;-69
2022/03/26 03:39:28;;;;;;;;;;;10.30;63.50;;;;;;5031286;28;19905;-69
2022/03/26 03:41:54;;;;;;;;;;;10.30;63.50;;;;;;5030064;28;19912;-69
2022/03/26 03:44:20;;;;;;;;;;;10.20;63.70;;;;;;5029280;28;20319;-70
2022/03/26 03:46:46;;;;;;;;;;;10.20;64.10;;;;;;5029969;28;20257;-69
2022/03/26 03:49:11;;;;;;;;;;;10.20;64.40;;;;;;5028925;28;19913;-70
2022/03/26 03:51:37;;;;;;;;;;;10.10;64.40;;;;;;5029844;28;19951;-70
2022/03/26 03:54:02;;;;;;;;;;;10.10;64.70;;;;;;5032126;28;20266;-70
2022/03/26 03:56:28;;;;;;;;;;;10.00;64.80;;;;;;5035404;28;19912;-70
2022/03/26 03:58:53;;;;;;;;;;;9.90;65.20;;;;;;5033605;28;20004;-69
2022/03/26 04:01:19;;;;;;;;;;;9.80;65.60;;;;;;5033132;28;20369;-69
2022/03/26 04:03:44;;;;;;;;;;;9.90;65.90;;;;;;5047988;28;19924;-70
2022/03/26 04:06:10;;;;;;;;;;;9.90;65.70;;;;;;5036335;28;20258;-70
2022/03/26 04:08:35;;;;;;;;;;;9.80;65.90;;;;;;5036797;28;19919;-70
2022/03/26 04:11:01;;;;;;;;;;;9.80;66.90;;;;;;5036162;28;20257;-70
2022/03/26 04:13:26;;;;;;;;;;;9.80;66.20;;;;;;5036199;28;20008;-70
2022/03/26 04:15:52;;;;;;;;;;;9.60;66.70;;;;;;5054759;28;20332;-68
2022/03/26 04:18:17;;;;;;;;;;;9.70;66.70;;;;;;5035879;28;19912;-69
2022/03/26 04:20:43;;;;;;;;;;;9.70;66.70;;;;;;5054514;28;19912;-69
2022/03/26 04:23:08;;;;;;;;;;;9.50;67.00;;;;;;5035884;28;19987;-69
2022/03/26 04:25:34;;;;;;;;;;;9.30;67.70;;;;;;5036516;28;19905;-69
2022/03/26 04:27:59;;;;;;;;;;;9.30;68.20;;;;;;5054088;28;19944;-70
2022/03/26 04:30:25;;;;;;;;;;;9.40;68.00;;;;;;5053681;28;20303;-69
2022/03/26 04:32:50;;;;;;;;;;;9.40;68.30;;;;;;5036081;28;19982;-69
2022/03/26 04:35:16;;;;;;;;;;;9.40;68.20;;;;;;5035607;28;19931;-69
2022/03/26 04:37:41;;;;;;;;;;;9.50;68.00;;;;;;5036334;28;20003;-70
2022/03/26 04:40:09;;;;;;;;;;;9.60;67.70;;;;;;5035681;28;19912;-69
2022/03/26 04:42:35;;;;;;;;;;;9.60;67.80;;;;;;5054134;28;19940;-69
2022/03/26 04:45:00;;;;;;;;;;;9.60;68.00;;;;;;5035958;28;19905;-70
2022/03/26 04:47:26;;;;;;;;;;;9.60;67.80;;;;;;5035210;28;20046;-69
2022/03/26 04:49:51;;;;;;;;;;;9.50;68.20;;;;;;5053854;28;19916;-69
2022/03/26 04:52:17;;;;;;;;;;;9.60;68.30;;;;;;5053156;28;19905;-69
2022/03/26 04:54:43;;;;;;;;;;;9.60;68.50;;;;;;5053686;28;19904;-70
2022/03/26 04:57:09;;;;;;;;;;;9.50;68.80;;;;;;5053272;28;19931;-69
2022/03/26 04:59:34;;;;;;;;;;;9.50;69.10;;;;;;5035892;28;19951;-69
2022/03/26 05:01:59;;;;;;;;;;;9.50;69.10;;;;;;5053540;28;19911;-69
2022/03/26 05:04:25;;;;;;;;;;;9.40;69.30;;;;;;5052797;28;19928;-70
2022/03/26 05:06:51;;;;;;;;;;;9.30;69.90;;;;;;5034841;28;20346;-70
2022/03/26 05:09:16;;;;;;;;;;;9.30;70.10;;;;;;5034869;28;19913;-70
2022/03/26 05:11:42;;;;;;;;;;;9.30;70.10;;;;;;5035681;28;20342;-69
2022/03/26 05:14:07;;;;;;;;;;;9.30;70.20;;;;;;5034963;28;19956;-69
2022/03/26 05:16:33;;;;;;;;;;;9.30;70.50;;;;;;5053097;28;20307;-70
2022/03/26 05:18:59;;;;;;;;;;;9.40;70.30;;;;;;5053120;28;20349;-69
2022/03/26 05:21:25;;;;;;;;;;;9.40;70.40;;;;;;5034540;28;19909;-69
2022/03/26 05:23:50;;;;;;;;;;;9.40;70.50;;;;;;5053240;28;19912;-69
2022/03/26 05:26:16;;;;;;;;;;;9.40;71.00;;;;;;5052323;28;19912;-69
2022/03/26 05:28:42;;;;;;;;;;;9.40;70.70;;;;;;5052795;28;19935;-70
2022/03/26 05:31:07;;;;;;;;;;;9.40;70.90;;;;;;5052527;28;20006;-70
2022/03/26 05:33:33;;;;;;;;;;;9.50;70.80;;;;;;5053078;28;19954;-70
2022/03/26 05:35:58;;;;;;;;;;;9.50;71.00;;;;;;5035045;28;19913;-69
2022/03/26 05:38:24;;;;;;;;;;;9.50;71.00;;;;;;5052224;28;20538;-69
2022/03/26 05:40:49;;;;;;;;;;;9.50;70.90;;;;;;5052845;28;19980;-69
2022/03/26 05:43:15;;;;;;;;;;;9.50;70.70;;;;;;5052611;28;19904;-69
2022/03/26 05:45:40;;;;;;;;;;;9.60;70.70;;;;;;5053058;28;20028;-68
2022/03/26 05:48:07;;;;;;;;;;;9.60;70.70;;;;;;5033930;28;19999;-71
2022/03/26 05:50:34;;;;;;;;;;;9.60;70.70;;;;;;5034800;28;19955;-69
2022/03/26 05:53:00;;;;;;;;;;;9.70;70.70;;;;;;5052785;28;19947;-69
2022/03/26 05:55:25;;;;;;;;;;;9.70;70.70;;;;;;5052112;28;20169;-70
2022/03/26 05:57:51;;;;;;;;;;;9.70;70.90;;;;;;5034780;28;20333;-69
2022/03/26 06:00:17;;;;;;;;;;;9.70;71.00;;;;;;5033784;28;20211;-69
2022/03/26 06:02:42;;;;;;;;;;;9.80;71.20;;;;;;5031016;28;19971;-68
2022/03/26 06:05:08;;;;;;;;;;;9.90;70.90;;;;;;5031998;28;20223;-72
2022/03/26 06:07:34;;;;;;;;;;;9.80;70.90;;;;;;5031390;28;19916;-69
2022/03/26 06:09:59;;;;;;;;;;;9.90;71.20;;;;;;5031321;28;20412;-69
2022/03/26 06:12:25;;;;;;;;;;;9.90;71.20;;;;;;5010164;28;20275;-69
2022/03/26 06:14:50;;;;;;;;;;;9.90;71.00;;;;;;5018142;28;19910;-70
2022/03/26 06:17:16;;;;;;;;;;;10.10;70.70;;;;;;5011005;28;19959;-69
2022/03/26 06:19:42;;;;;;;;;;;10.00;70.90;;;;;;5012489;28;19916;-70
2022/03/26 06:22:07;;;;;;;;;;;10.20;70.80;;;;;;5012489;28;20366;-72
2022/03/26 06:24:33;;;;;;;;;;;10.20;70.70;;;;;;5011409;28;19912;-71
2022/03/26 06:26:59;;;;;;;;;;;10.20;71.10;;;;;;5010984;28;19912;-70
2022/03/26 06:29:25;;;;;;;;;;;10.30;70.60;;;;;;5010058;28;19917;-69
2022/03/26 06:31:50;;;;;;;;;;;10.50;70.40;;;;;;5002428;28;19909;-70
2022/03/26 06:34:16;;;;;;;;;;;10.60;70.20;;;;;;5001223;28;19909;-70
2022/03/26 06:36:42;;;;;;;;;;;10.70;69.70;;;;;;5001377;28;20480;-70
2022/03/26 06:39:09;;;;;;;;;;;10.90;69.50;;;;;;4999703;28;20358;-70
2022/03/26 06:41:38;;;;;;;;;;;11.00;69.10;;;;;;5011190;28;19912;-71
2022/03/26 06:44:05;;;;;;;;;;;11.20;68.80;;;;;;5012104;28;19905;-68
2022/03/26 06:46:31;;;;;;;;;;;11.40;70.00;;;;;;5010035;28;19916;-68
2022/03/26 06:48:56;;;;;;;;;;;11.60;68.30;;;;;;5024026;28;19913;-68
2022/03/26 06:51:21;;;;;;;;;;;11.70;68.40;;;;;;5006822;28;19914;-69
2022/03/26 06:53:47;;;;;;;;;;;11.80;67.60;;;;;;5009869;28;20362;-68
2022/03/26 06:56:13;;;;;;;;;;;12.00;67.00;;;;;;5005140;28;20417;-70
2022/03/26 06:58:38;;;;;;;;;;;12.20;66.90;;;;;;5006589;28;20254;-68
2022/03/26 07:01:04;;;;;;;;;;;12.40;66.40;;;;;;5004738;28;20386;-68
2022/03/26 07:03:30;;;;;;;;;;;12.10;66.60;;;;;;5020305;28;20349;-68
2022/03/26 07:05:55;;;;;;;;;;;12.50;66.20;;;;;;5024102;28;19976;-67
2022/03/26 07:08:21;;;;;;;;;;;12.60;65.30;;;;;;5014848;28;19948;-68
2022/03/26 07:10:47;;;;;;;;;;;12.80;65.50;;;;;;5014254;28;19921;-68
2022/03/26 07:13:12;;;;;;;;;;;13.00;64.90;;;;;;5009576;28;20014;-69
2022/03/26 07:15:38;;;;;;;;;;;13.30;64.40;;;;;;5028921;28;20342;-68
2022/03/26 07:18:03;;;;;;;;;;;13.40;64.20;;;;;;5030940;28;19909;-69
2022/03/26 07:20:29;;;;;;;;;;;13.50;64.70;;;;;;5029718;28;20088;-66
2022/03/26 07:22:55;;;;;;;;;;;13.80;64.20;;;;;;5029570;28;19905;-67
2022/03/26 07:25:20;;;;;;;;;;;14.10;63.10;;;;;;5030131;28;19909;-67
2022/03/26 07:27:46;;;;;;;;;;;14.30;62.90;;;;;;5017259;28;19914;-68
2022/03/26 07:30:11;;;;;;;;;;;14.40;62.60;;;;;;5017276;28;19916;-68
2022/03/26 07:32:37;;;;;;;;;;;14.80;61.90;;;;;;5024913;28;19906;-67
2022/03/26 07:35:03;;;;;;;;;;;14.80;61.90;;;;;;5011156;28;19920;-67
2022/03/26 07:37:29;;;;;;;;;;;14.90;61.50;;;;;;5012065;28;19917;-67
2022/03/26 07:39:54;;;;;;;;;;;15.10;61.20;;;;;;5009169;28;19909;-67
2022/03/26 07:42:20;;;;;;;;;;;15.20;60.70;;;;;;5012841;28;20321;-66
2022/03/26 07:44:45;;;;;;;;;;;15.10;61.10;;;;;;5013873;28;19913;-66
2022/03/26 07:47:11;;;;;;;;;;;15.50;61.00;;;;;;5014618;28;19913;-71
2022/03/26 07:49:37;;;;;;;;;;;15.50;60.50;;;;;;5014184;28;19910;-66
2022/03/26 07:52:03;;;;;;;;;;;15.70;60.30;;;;;;5016636;28;19952;-66
2022/03/26 07:54:28;;;;;;;;;;;15.90;59.90;;;;;;5026143;28;19912;-66
2022/03/26 07:56:54;;;;;;;;;;;15.90;59.70;;;;;;5027258;28;19905;-66
2022/03/26 07:59:19;;;;;;;;;;;16.10;59.70;;;;;;5014850;28;19916;-68
2022/03/26 08:01:45;;;;;;;;;;;16.30;59.30;;;;;;5013748;28;19909;-66
2022/03/26 08:04:10;;;;;;;;;;;16.30;59.20;;;;;;5020026;28;19925;-65
2022/03/26 08:06:36;;;;;;;;;;;16.60;59.20;;;;;;5008324;28;19918;-66
2022/03/26 08:09:01;;;;;;;;;;;16.90;58.70;;;;;;5005369;28;20235;-68
2022/03/26 08:11:27;;;;;;;;;;;17.00;58.20;;;;;;5011450;28;19972;-67
2022/03/26 08:13:52;;;;;;;;;;;17.00;58.90;;;;;;5011045;28;20252;-67
2022/03/26 08:16:19;;;;;;;;;;;17.50;58.10;;;;;;5008929;28;20145;-68
2022/03/26 08:18:45;;;;;;;;;;;17.40;57.60;;;;;;5016876;28;19932;-68
2022/03/26 08:21:11;;;;;;;;;;;17.70;57.30;;;;;;5011807;28;20330;-69
2022/03/26 08:23:37;;;;;;;;;;;17.90;56.90;;;;;;5008076;28;19996;-68
2022/03/26 08:26:22;;;;;;;;;;;18.10;56.70;;;;;;5010922;28;19909;-69
2022/03/26 08:28:51;;;;;;;;;;;18.40;56.30;;;;;;5012897;28;20016;-69
2022/03/26 08:31:17;;;;;;;;;;;18.70;56.00;;;;;;5007157;28;20363;-68
2022/03/26 08:33:43;;;;;;;;;;;18.70;56.10;;;;;;5014019;28;19910;-69
2022/03/26 08:36:09;;;;;;;;;;;19.20;55.80;;;;;;5011434;28;19960;-70
2022/03/26 08:38:35;;;;;;;;;;;19.20;55.50;;;;;;5015004;28;19933;-68
2022/03/26 08:41:01;;;;;;;;;;;19.60;55.20;;;;;;5008087;28;19952;-67
2022/03/26 08:43:26;;;;;;;;;;;19.60;55.10;;;;;;5012307;28;20318;-67
2022/03/26 08:45:52;;;;;;;;;;;19.80;55.10;;;;;;5012891;28;19913;-67
2022/03/26 08:48:17;;;;;;;;;;;20.00;54.40;;;;;;5014155;28;19992;-68
2022/03/26 08:50:43;;;;;;;;;;;20.30;54.40;;;;;;5011032;28;19930;-72
2022/03/26 08:53:12;;;;;;;;;;;20.40;54.10;;;;;;5008870;28;19917;-74
2022/03/26 08:55:38;;;;;;;;;;;20.70;53.80;;;;;;5009783;28;19967;-73
2022/03/26 08:58:03;;;;;;;;;;;20.60;53.70;;;;;;5009384;28;19944;-72
2022/03/26 09:00:29;;;;;;;;;;;20.70;53.40;;;;;;5009741;28;19992;-73
2022/03/26 09:02:55;;;;;;;;;;;20.90;53.50;;;;;;5018973;28;19995;-73
2022/03/26 09:05:21;;;;;;;;;;;21.10;53.20;;;;;;5020177;28;20426;-73
2022/03/26 09:07:46;;;;;;;;;;;20.90;53.30;;;;;;5022207;28;20016;-74
2022/03/26 09:10:12;;;;;;;;;;;20.90;53.30;;;;;;5017162;28;20314;-75
2022/03/26 09:12:38;;;;;;;;;;;21.10;53.20;;;;;;5027449;28;19905;-73
2022/03/26 09:15:06;;;;;;;;;;;21.20;53.30;;;;;;5018942;28;20430;-73
2022/03/26 09:17:32;;;;;;;;;;;21.60;53.30;;;;;;5021911;28;19964;-72
2022/03/26 09:19:58;;;;;;;;;;;21.90;52.90;;;;;;5013492;28;19913;-73
2022/03/26 09:22:23;;;;;;;;;;;21.70;53.00;;;;;;5010914;28;19910;-60
2022/03/26 09:24:49;;;;;;;;;;;22.00;56.40;;;;;;5010943;28;19910;-62
2022/03/26 09:27:15;;;;;;;;;;;22.00;57.80;;;;;;5015316;28;20339;-61
2022/03/26 09:29:40;;;;;;;;;;;22.20;57.10;;;;;;5012498;28;19913;-61
2022/03/26 09:32:06;;;;;;;;;;;22.60;56.50;;;;;;5013148;28;19921;-62
2022/03/26 09:34:32;;;;;;;;;;;22.00;56.30;;;;;;5010794;28;19957;-61
2022/03/26 09:36:57;;;;;;;;;;;22.50;58.60;;;;;;5011517;28;19905;-60
2022/03/26 09:39:23;;;;;;;;;;;22.70;54.70;;;;;;5012256;28;19960;-61
2022/03/26 09:41:50;;;;;;;;;;;23.10;54.70;;;;;;5012595;28;19906;-61
2022/03/26 09:44:15;;;;;;;;;;;23.50;53.60;;;;;;5014734;28;19966;-61
2022/03/26 09:46:41;;;;;;;;;;;23.70;53.30;;;;;;5012289;28;20258;-62
2022/03/26 09:49:09;;;;;;;;;;;23.70;53.10;;;;;;5010819;28;19956;-61
2022/03/26 09:51:35;;;;;;;;;;;23.90;51.80;;;;;;5008701;28;20388;-61
2022/03/26 09:54:00;;;;;;;;;;;23.80;54.40;;;;;;5009958;28;19905;-61
2022/03/26 09:56:28;;;;;;;;;;;23.90;53.00;;;;;;5010081;28;19949;-62
2022/03/26 09:58:53;;;;;;;;;;;23.30;52.30;;;;;;5010286;28;20358;-61
2022/03/26 10:01:20;;;;;;;;;;;24.00;52.00;;;;;;5010551;28;20008;-61
2022/03/26 10:04:04;;;;;;;;;;;23.50;52.50;;;;;;5031414;28;20011;-61
2022/03/26 10:06:29;;;;;;;;;;;23.80;52.90;;;;;;5041521;28;19928;-61
2022/03/26 10:08:55;;;;;;;;;;;22.80;52.60;;;;;;5042732;28;20012;-61
2022/03/26 10:11:21;;;;;;;;;;;22.80;53.40;;;;;;5046825;28;19991;-62
2022/03/26 10:13:48;;;;;;;;;;;23.30;51.90;;;;;;5049042;28;19909;-62
2022/03/26 10:16:15;;;;;;;;;;;23.90;50.40;;;;;;5046773;28;20238;-60
2022/03/26 10:18:45;;;;;;;;;;;24.10;51.50;;;;;;5041383;28;19916;-62
2022/03/26 10:21:15;;;;;;;;;;;24.20;50.70;;;;;;5050440;28;19905;-63
2022/03/26 10:23:42;;;;;;;;;;;23.90;50.50;;;;;;5049949;28;19905;-62
2022/03/26 10:26:11;;;;;;;;;;;24.60;49.50;;;;;;5048939;28;19911;-61
2022/03/26 10:28:37;;;;;;;;;;;24.80;49.50;;;;;;5028416;28;20110;-62
2022/03/26 10:34:03;;;;;;;;;;;25.10;49.20;;;;;;5043495;28;20230;-62
2022/03/26 10:36:29;;;;;;;;;;;25.60;48.20;;;;;;5041330;28;19913;-61
2022/03/26 10:38:54;;;;;;;;;;;24.90;50.00;;;;;;5030226;28;20010;-63
2022/03/26 10:41:20;;;;;;;;;;;24.90;49.20;;;;;;5045174;28;19969;-62
2022/03/26 10:43:46;;;;;;;;;;;25.10;48.60;;;;;;5037606;28;19998;-59
2022/03/26 10:46:11;;;;;;;;;;;25.30;50.60;;;;;;5050680;28;19975;-74
2022/03/26 10:48:37;;;;;;;;;;;25.70;49.00;;;;;;5027528;28;19997;-78
2022/03/26 10:51:07;;;;;;;;;;;25.50;48.10;;;;;;5031559;28;19909;-73
2022/03/26 10:53:39;;;;;;;;;;;25.10;51.20;;;;;;5048921;28;19919;-74
2022/03/26 10:56:06;;;;;;;;;;;25.60;49.70;;;;;;5050769;28;19905;-74
2022/03/26 10:58:34;;;;;;;;;;;25.90;49.60;;;;;;5031498;28;19913;-74
2022/03/26 11:01:00;;;;;;;;;;;26.20;48.40;;;;;;5032130;28;19916;-75
2022/03/26 11:03:25;;;;;;;;;;;26.10;48.20;;;;;;5031825;28;20211;-77
2022/03/26 11:05:55;;;;;;;;;;;25.90;49.40;;;;;;5050589;28;19920;-74
2022/03/26 11:08:22;;;;;;;;;;;26.40;48.80;;;;;;5032264;28;19935;-75
2022/03/26 11:10:50;;;;;;;;;;;26.00;48.90;;;;;;5050141;28;19912;-76
2022/03/26 11:13:17;;;;;;;;;;;25.80;49.40;;;;;;5032836;28;19905;-75
2022/03/26 11:15:46;;;;;;;;;;;26.40;48.00;;;;;;5032499;28;19908;-75
2022/03/26 11:18:12;;;;;;;;;;;26.20;48.40;;;;;;5032569;28;19905;-75
2022/03/26 11:20:37;;;;;;;;;;;26.80;49.10;;;;;;5032542;28;19915;-74
2022/03/26 11:23:13;;;;;;;;;;;26.40;47.40;;;;;;5050975;28;20317;-77
2022/03/26 11:25:44;;;;;;;;;;;26.60;48.60;;;;;;5050782;28;19905;-74
2022/03/26 11:28:19;;;;;;;;;;;26.50;46.20;;;;;;5026753;28;19913;-75
2022/03/26 11:30:49;;;;;;;;;;;26.50;46.30;;;;;;5049418;28;19913;-75
2022/03/26 11:33:15;;;;;;;;;;;26.90;47.20;;;;;;5032254;28;20022;-75
2022/03/26 11:35:50;;;;;;;;;;;27.20;46.70;;;;;;5046727;28;20066;-74
2022/03/26 11:38:16;;;;;;;;;;;27.30;46.20;;;;;;5050860;28;19966;-74
2022/03/26 11:40:43;;;;;;;;;;;27.50;46.80;;;;;;5030094;28;19905;-73
2022/03/26 11:43:14;;;;;;;;;;;27.00;46.40;;;;;;5030551;28;19951;-60
2022/03/26 11:51:29;;;;;;;;;;;27.70;48.60;;;;;;5007670;28;19964;-61
2022/03/26 11:54:05;;;;;;;;;;;27.50;47.10;;;;;;5027007;28;19913;-60
2022/03/26 11:56:31;;;;;;;;;;;27.20;50.80;;;;;;5038463;28;19912;-60
2022/03/26 11:59:06;;;;;;;;;;;27.50;47.40;;;;;;5047733;28;19931;-60
2022/03/26 12:01:35;;;;;;;;;;;27.80;48.70;;;;;;5048587;28;19974;-59
2022/03/26 12:04:11;;;;;;;;;;;26.70;48.70;;;;;;5031443;28;19925;-60
2022/03/26 12:06:49;;;;;;;;;;;26.70;49.30;;;;;;5031144;28;19947;-59
2022/03/26 12:09:33;;;;;;;;;;;26.70;48.90;;;;;;5049569;28;19920;-59
2022/03/26 12:12:05;;;;;;;;;;;27.30;49.70;;;;;;5040857;28;20003;-59
2022/03/26 12:14:31;;;;;;;;;;;27.50;48.10;;;;;;5026976;28;19909;-60
2022/03/26 12:16:56;;;;;;;;;;;27.40;47.70;;;;;;5032540;28;20007;-60
2022/03/26 12:19:55;;;;;;;;;;;27.10;47.20;;;;;;5046943;28;20334;-60
2022/03/26 12:22:28;;;;;;;;;;;27.00;49.00;;;;;;5025562;28;20269;-60
2022/03/26 12:24:54;;;;;;;;;;;26.90;48.10;;;;;;5036025;28;19944;-59
2022/03/26 12:27:21;;;;;;;;;;;26.60;46.60;;;;;;5034953;28;19924;-60
2022/03/26 12:29:46;;;;;;;;;;;26.50;48.10;;;;;;5040674;28;19921;-60
2022/03/26 12:32:12;;;;;;;;;;;26.30;47.50;;;;;;5047244;28;20016;-59
2022/03/26 12:34:59;;;;;;;;;;;26.30;50.80;;;;;;5038141;28;20027;-60
2022/03/26 12:37:25;;;;;;;;;;;26.20;48.50;;;;;;5044203;28;19991;-59
2022/03/26 12:39:51;;;;;;;;;;;26.30;50.30;;;;;;5046933;28;19913;-60
2022/03/26 12:42:17;;;;;;;;;;;26.40;48.40;;;;;;5031143;28;19921;-60
2022/03/26 12:44:43;;;;;;;;;;;26.50;49.50;;;;;;5052764;28;19975;-59
2022/03/26 12:47:09;;;;;;;;;;;26.60;47.70;;;;;;5038614;28;20026;-61
2022/03/26 12:49:35;;;;;;;;;;;26.70;47.50;;;;;;5014553;28;19970;-60
2022/03/26 12:52:01;;;;;;;;;;;26.60;47.40;;;;;;5035370;28;19910;-60
2022/03/26 12:54:30;;;;;;;;;;;26.60;54.70;;;;;;5048272;28;19920;-63
2022/03/26 12:56:56;;;;;;;;;;;26.70;49.80;;;;;;5052980;28;20365;-61
2022/03/26 12:59:21;;;;;;;;;;;26.10;46.60;;;;;;5018509;28;19909;-60
2022/03/26 13:01:47;;;;;;;;;;;25.50;47.60;;;;;;5052302;28;20322;-60
2022/03/26 13:04:16;;;;;;;;;;;25.30;48.20;;;;;;5052282;28;20030;-59
2022/03/26 13:06:41;;;;;;;;;;;25.50;49.10;;;;;;5051737;28;19913;-60
2022/03/26 13:09:07;;;;;;;;;;;25.90;48.60;;;;;;5052854;28;19919;-59
2022/03/26 13:11:33;;;;;;;;;;;26.00;49.60;;;;;;5033331;28;19960;-58
2022/03/26 13:14:00;;;;;;;;;;;25.80;47.90;;;;;;5033505;28;19913;-59
2022/03/26 13:16:30;;;;;;;;;;;26.00;48.60;;;;;;5027392;28;19913;-58
2022/03/26 13:19:09;;;;;;;;;;;26.20;47.60;;;;;;5041220;28;20412;-57
2022/03/26 13:21:35;;;;;;;;;;;26.40;49.70;;;;;;5049702;28;19915;-57
2022/03/26 13:24:07;;;;;;;;;;;25.70;47.20;;;;;;5046194;28;20334;-56
2022/03/26 13:26:43;;;;;;;;;;;25.70;48.80;;;;;;5023501;28;20003;-58
2022/03/26 13:29:12;;;;;;;;;;;26.00;48.50;;;;;;5030888;28;19917;-56
2022/03/26 13:31:42;;;;;;;;;;;26.20;48.30;;;;;;5033396;28;19917;-56
2022/03/26 13:34:11;;;;;;;;;;;26.20;51.40;;;;;;5037162;28;19920;-58
2022/03/26 13:36:36;;;;;;;;;;;26.10;53.40;;;;;;5031857;28;20281;-57
2022/03/26 13:39:13;;;;;;;;;;;26.30;50.20;;;;;;5032321;28;19909;-58
2022/03/26 13:41:38;;;;;;;;;;;26.50;49.70;;;;;;5031531;28;19955;-58
2022/03/26 13:44:04;;;;;;;;;;;26.50;48.70;;;;;;5014389;28;19913;-59
2022/03/26 13:46:31;;;;;;;;;;;26.70;51.30;;;;;;5034697;28;19962;-58
2022/03/26 13:48:57;;;;;;;;;;;26.60;49.10;;;;;;5043996;28;19917;-58
2022/03/26 13:51:36;;;;;;;;;;;26.60;49.00;;;;;;5031475;28;19974;-58
2022/03/26 13:54:05;;;;;;;;;;;26.50;50.10;;;;;;5013746;28;20046;-57
2022/03/26 13:56:32;;;;;;;;;;;26.10;49.00;;;;;;5013177;28;19996;-60
2022/03/26 13:59:02;;;;;;;;;;;26.30;48.50;;;;;;5031807;28;19987;-57
2022/03/26 14:01:28;;;;;;;;;;;26.30;48.60;;;;;;5013756;28;20354;-58
2022/03/26 14:03:57;;;;;;;;;;;26.30;47.10;;;;;;5031126;28;20000;-58
2022/03/26 14:06:23;;;;;;;;;;;26.10;48.10;;;;;;5031701;28;20356;-57
2022/03/26 14:08:48;;;;;;;;;;;26.10;47.20;;;;;;5030733;28;19981;-57
2022/03/26 14:11:15;;;;;;;;;;;25.80;47.80;;;;;;5031673;28;20270;-59
2022/03/26 14:13:40;;;;;;;;;;;25.80;46.50;;;;;;5038661;28;19912;-58
2022/03/26 14:16:06;;;;;;;;;;;25.50;46.00;;;;;;5013121;28;20288;-59
2022/03/26 14:18:31;;;;;;;;;;;25.50;46.80;;;;;;5045083;28;20109;-59
2022/03/26 14:20:57;;;;;;;;;;;25.70;48.30;;;;;;5049140;28;20338;-61
2022/03/26 14:23:22;;;;;;;;;;;25.90;48.10;;;;;;5031142;28;19915;-59